Time;durP1;ratioP1;P1;durP2;ratioP2;P2;SDS_P1;SDS_P2;PMS_P1;PMS_P2;Temp;Humidity;BMP_temperature;BMP_pressure;BME280_temperature;BME280_humidity;BME280_pressure;Samples;Min_cycle;Max_cycle;Signal;HPM_P1;HPM_P2
2022/04/22 00:00:26;;;;;;;;;53.75;41.00;24.30;99.90;;;;;;5036861;28;9405;-62
2022/04/22 00:02:54;;;;;;;;;53.50;44.50;24.30;99.90;;;;;;5039978;28;8736;-62
2022/04/22 00:05:21;;;;;;;;;55.75;46.00;24.50;99.90;;;;;;5039742;28;8787;-62
2022/04/22 00:07:50;;;;;;;;;57.00;45.50;24.40;99.90;;;;;;5023492;28;8751;-62
2022/04/22 00:10:17;;;;;;;;;54.25;43.25;24.40;99.90;;;;;;5029170;28;8765;-61
2022/04/22 00:12:44;;;;;;;;;49.75;40.00;24.40;99.90;;;;;;5024813;28;8792;-63
2022/04/22 00:15:13;;;;;;;;;48.25;39.75;24.50;99.90;;;;;;5021277;28;8771;-63
2022/04/22 00:17:41;;;;;;;;;48.75;40.50;24.50;99.90;;;;;;5020060;28;8751;-63
2022/04/22 00:20:10;;;;;;;;;54.00;43.50;24.50;99.90;;;;;;5019118;28;8789;-63
2022/04/22 00:22:40;;;;;;;;;50.25;41.50;24.50;99.90;;;;;;5034346;28;8771;-62
2022/04/22 00:25:11;;;;;;;;;53.00;41.25;24.50;99.90;;;;;;5040531;28;8752;-63
2022/04/22 00:27:38;;;;;;;;;54.25;43.50;24.50;99.90;;;;;;5039436;28;8760;-63
2022/04/22 00:30:10;;;;;;;;;49.25;41.25;24.50;99.90;;;;;;5038380;28;8771;-63
2022/04/22 00:32:37;;;;;;;;;54.50;43.00;24.40;99.90;;;;;;5054065;28;8866;-63
2022/04/22 00:35:04;;;;;;;;;53.00;42.00;24.30;99.90;;;;;;5039792;28;8796;-63
2022/04/22 00:37:31;;;;;;;;;55.00;42.50;24.30;99.90;;;;;;5037001;28;8744;-62
2022/04/22 00:39:57;;;;;;;;;51.00;41.50;24.30;99.90;;;;;;5039282;28;8817;-63
2022/04/22 00:42:28;;;;;;;;;57.00;44.50;24.30;99.90;;;;;;5053372;28;8762;-63
2022/04/22 00:44:58;;;;;;;;;52.50;43.00;24.30;99.90;;;;;;5037760;28;9040;-63
2022/04/22 00:47:27;;;;;;;;;60.50;48.00;24.40;99.90;;;;;;5036927;28;8951;-64
2022/04/22 00:49:54;;;;;;;;;54.25;44.00;24.50;99.90;;;;;;5036369;28;8752;-63
2022/04/22 00:52:21;;;;;;;;;54.75;44.50;24.50;99.90;;;;;;5042282;28;8732;-62
2022/04/22 00:54:48;;;;;;;;;55.00;45.75;24.50;99.90;;;;;;5043773;28;8759;-64
2022/04/22 00:57:16;;;;;;;;;53.00;43.00;24.50;99.90;;;;;;5078074;28;8747;-63
2022/04/22 00:59:42;;;;;;;;;48.75;40.25;24.60;99.90;;;;;;5059996;28;8729;-63
2022/04/22 01:02:09;;;;;;;;;54.50;43.00;24.70;99.90;;;;;;5043066;28;8756;-64
2022/04/22 01:10:06;;;;;;;;;56.25;43.25;24.70;99.90;;;;;;5043211;28;8763;-63
2022/04/22 01:12:32;;;;;;;;;52.75;42.50;24.70;99.90;;;;;;5056333;28;8736;-63
2022/04/22 01:14:59;;;;;;;;;53.75;41.50;24.70;99.90;;;;;;5036789;28;8760;-63
2022/04/22 01:17:26;;;;;;;;;52.50;39.75;24.70;99.90;;;;;;5037453;28;8819;-63
2022/04/22 01:19:54;;;;;;;;;51.75;42.00;24.70;99.90;;;;;;5037331;28;8867;-64
2022/04/22 01:22:21;;;;;;;;;56.75;42.75;24.70;99.90;;;;;;5037092;28;8760;-63
2022/04/22 01:24:52;;;;;;;;;60.25;46.75;24.60;99.90;;;;;;5037293;28;8784;-64
2022/04/22 01:27:19;;;;;;;;;57.00;46.00;24.60;99.90;;;;;;5036556;28;8775;-64
2022/04/22 01:29:46;;;;;;;;;52.25;42.25;24.60;99.90;;;;;;5036174;28;8744;-64
2022/04/22 01:32:13;;;;;;;;;53.25;41.50;24.60;99.90;;;;;;5037356;28;8764;-64
2022/04/22 01:34:42;;;;;;;;;52.75;42.50;24.60;99.90;;;;;;5036424;28;8760;-64
2022/04/22 01:37:09;;;;;;;;;52.25;42.75;24.60;99.90;;;;;;5038000;28;8748;-64
2022/04/22 01:39:36;;;;;;;;;54.00;43.75;24.70;99.90;;;;;;5035799;28;8994;-64
2022/04/22 01:42:03;;;;;;;;;53.50;43.50;24.70;99.90;;;;;;5037537;28;8756;-66
2022/04/22 01:44:29;;;;;;;;;59.75;47.75;24.70;99.90;;;;;;5037169;28;8756;-65
2022/04/22 01:46:57;;;;;;;;;49.75;41.50;24.80;99.90;;;;;;5035834;28;8857;-66
2022/04/22 01:49:24;;;;;;;;;55.75;44.00;24.90;99.90;;;;;;5036095;28;8752;-66
2022/04/22 01:51:50;;;;;;;;;55.50;44.50;25.00;99.90;;;;;;5037055;28;9394;-65
2022/04/22 01:54:17;;;;;;;;;47.75;40.25;24.90;99.90;;;;;;5033876;28;8847;-66
2022/04/22 01:56:44;;;;;;;;;50.75;41.00;25.00;99.90;;;;;;5027318;28;8760;-68
2022/04/22 01:59:10;;;;;;;;;48.75;41.25;25.10;99.90;;;;;;5036018;28;8740;-66
2022/04/22 02:01:37;;;;;;;;;53.25;40.50;25.10;99.90;;;;;;5035299;28;8774;-65
2022/04/22 02:04:04;;;;;;;;;44.50;35.00;25.20;99.90;;;;;;5037721;28;8843;-64
2022/04/22 02:06:31;;;;;;;;;51.00;41.75;25.20;99.90;;;;;;5036612;28;8729;-63
2022/04/22 02:08:57;;;;;;;;;51.75;42.50;25.30;99.90;;;;;;5035229;28;8780;-63
2022/04/22 02:11:24;;;;;;;;;51.75;42.00;25.20;99.90;;;;;;5035553;28;8768;-63
2022/04/22 02:13:50;;;;;;;;;53.75;44.00;25.20;99.90;;;;;;5043665;28;8928;-63
2022/04/22 02:16:17;;;;;;;;;46.00;38.50;25.20;99.90;;;;;;5022176;28;8775;-63
2022/04/22 02:18:44;;;;;;;;;53.25;43.00;25.30;99.90;;;;;;5038546;28;8799;-62
2022/04/22 02:21:11;;;;;;;;;55.00;45.00;25.30;99.90;;;;;;5056149;28;8766;-59
2022/04/22 02:23:37;;;;;;;;;51.25;44.50;25.30;99.90;;;;;;5037756;28;8786;-68
2022/04/22 02:26:05;;;;;;;;;53.00;42.00;25.40;99.90;;;;;;5038039;28;8767;-62
2022/04/22 02:28:31;;;;;;;;;52.50;42.00;25.50;99.90;;;;;;5037628;28;8750;-61
2022/04/22 02:31:03;;;;;;;;;47.00;38.50;25.50;99.90;;;;;;5056945;28;8743;-62
2022/04/22 02:33:31;;;;;;;;;51.50;40.00;25.60;99.90;;;;;;5036855;28;8814;-61
2022/04/22 02:35:58;;;;;;;;;48.00;39.00;25.70;99.90;;;;;;5037944;28;8787;-62
2022/04/22 02:38:25;;;;;;;;;55.50;41.75;25.60;99.90;;;;;;5055484;28;8790;-62
2022/04/22 02:46:22;;;;;;;;;45.00;34.50;25.80;99.90;;;;;;5055716;28;8743;-62
2022/04/22 02:48:48;;;;;;;;;40.25;33.00;25.90;99.90;;;;;;5055998;28;8782;-63
2022/04/22 02:51:15;;;;;;;;;40.50;33.75;26.30;99.90;;;;;;5056139;28;8797;-63
2022/04/22 02:53:42;;;;;;;;;43.25;33.50;26.60;99.90;;;;;;5055268;28;9428;-62
2022/04/22 02:56:08;;;;;;;;;41.25;33.00;27.40;99.90;;;;;;5055661;28;8801;-63
2022/04/22 02:58:35;;;;;;;;;39.50;33.25;27.50;99.90;;;;;;5037266;28;8869;-63
2022/04/22 03:01:02;;;;;;;;;37.75;32.25;27.30;99.90;;;;;;5056213;28;8755;-63
2022/04/22 03:03:29;;;;;;;;;37.75;32.25;27.30;99.90;;;;;;5038119;28;8759;-64
2022/04/22 03:05:56;;;;;;;;;40.00;34.50;27.40;99.90;;;;;;5055754;28;8763;-64
2022/04/22 03:08:22;;;;;;;;;30.50;25.75;28.20;99.90;;;;;;5055848;28;8794;-63
2022/04/22 03:10:49;;;;;;;;;33.75;29.50;28.40;99.90;;;;;;5055955;28;9460;-64
2022/04/22 03:13:16;;;;;;;;;40.25;30.75;28.10;99.90;;;;;;5036102;28;8792;-64
2022/04/22 03:15:43;;;;;;;;;36.00;31.25;28.70;99.90;;;;;;5044735;28;9500;-64
2022/04/22 03:18:10;;;;;;;;;38.75;27.25;29.00;99.90;;;;;;5056313;28;8747;-63
2022/04/22 03:20:37;;;;;;;;;42.25;33.75;28.00;99.90;;;;;;5037976;28;8786;-63
2022/04/22 03:23:04;;;;;;;;;28.25;25.25;27.80;99.90;;;;;;5055518;28;8786;-65
2022/04/22 03:25:31;;;;;;;;;34.00;32.00;27.90;99.90;;;;;;5055350;28;8975;-63
2022/04/22 03:27:58;;;;;;;;;39.75;34.00;27.90;99.90;;;;;;5056537;28;8778;-64
2022/04/22 03:30:25;;;;;;;;;33.25;31.00;28.50;99.90;;;;;;5055947;28;8747;-65
2022/04/22 03:32:52;;;;;;;;;39.00;32.75;29.10;99.90;;;;;;5055898;28;8867;-65
2022/04/22 03:35:18;;;;;;;;;34.00;29.00;28.90;99.90;;;;;;5055860;28;8771;-64
2022/04/22 03:37:45;;;;;;;;;34.75;28.50;28.50;99.90;;;;;;5059419;28;8817;-64
2022/04/22 03:40:12;;;;;;;;;38.50;32.00;28.40;99.90;;;;;;5060080;28;8742;-64
2022/04/22 03:42:38;;;;;;;;;36.00;31.50;28.30;99.90;;;;;;5058382;28;8798;-64
2022/04/22 03:45:05;;;;;;;;;33.75;27.75;28.80;99.90;;;;;;5041276;28;8786;-63
2022/04/22 03:47:32;;;;;;;;;39.25;33.00;28.20;99.90;;;;;;5059581;28;8852;-63
2022/04/22 03:49:59;;;;;;;;;32.50;28.50;28.10;99.90;;;;;;5059318;28;8852;-63
2022/04/22 03:52:25;;;;;;;;;36.00;31.50;28.80;99.90;;;;;;5024605;28;9458;-63
2022/04/22 03:54:52;;;;;;;;;40.50;32.75;29.10;99.90;;;;;;5042319;28;8785;-65
2022/04/22 04:00:04;;;;;;;;;35.25;30.50;29.00;99.90;;;;;;5044059;28;8775;-65
2022/04/22 04:02:31;;;;;;;;;33.25;30.25;28.70;99.90;;;;;;5041180;28;8818;-63
2022/04/22 04:04:58;;;;;;;;;34.25;29.75;29.00;99.90;;;;;;5041510;28;8790;-64
2022/04/22 04:07:24;;;;;;;;;37.25;32.25;29.00;99.90;;;;;;5040657;28;8747;-63
2022/04/22 04:18:06;;;;;;;;;39.25;32.25;29.60;99.90;;;;;;5043289;28;8774;-63
2022/04/22 04:23:20;;;;;;;;;38.25;31.75;29.50;99.90;;;;;;5038348;28;8781;-65
2022/04/22 04:25:47;;;;;;;;;36.00;30.25;30.20;99.90;;;;;;5037930;28;8852;-64
2022/04/22 04:28:15;;;;;;;;;31.75;28.25;30.00;99.90;;;;;;5037293;28;8780;-65
2022/04/22 04:30:42;;;;;;;;;34.50;32.00;29.70;99.90;;;;;;5037216;28;9402;-65
2022/04/22 04:33:10;;;;;;;;;36.50;32.25;29.60;99.90;;;;;;5020763;28;8754;-66
2022/04/22 04:35:38;;;;;;;;;33.50;30.50;30.30;99.90;;;;;;5037047;28;8785;-66
2022/04/22 04:38:06;;;;;;;;;41.50;33.50;29.70;99.90;;;;;;5056837;28;8782;-65
2022/04/22 04:40:33;;;;;;;;;40.75;32.75;29.80;99.90;;;;;;5040627;28;8864;-67
2022/04/22 04:43:02;;;;;;;;;33.75;31.25;30.40;99.90;;;;;;5057124;28;8750;-66
2022/04/22 04:45:32;;;;;;;;;36.25;31.75;30.30;99.90;;;;;;5040599;28;8755;-67
2022/04/22 04:47:59;;;;;;;;;32.50;30.25;30.90;99.90;;;;;;5041515;28;8751;-66
2022/04/22 04:50:26;;;;;;;;;40.25;31.00;30.80;99.90;;;;;;5058382;28;8915;-67
2022/04/22 04:52:53;;;;;;;;;30.75;29.00;30.30;99.90;;;;;;5043824;28;8894;-70
2022/04/22 04:55:19;;;;;;;;;38.00;33.50;30.60;99.90;;;;;;5041107;28;8767;-68
2022/04/22 04:57:46;;;;;;;;;35.00;31.50;30.80;99.90;;;;;;5058255;28;8813;-70
2022/04/22 05:00:14;;;;;;;;;37.50;31.25;31.20;99.90;;;;;;5058133;28;8831;-70
2022/04/22 05:02:41;;;;;;;;;37.00;31.75;31.20;99.90;;;;;;5058590;28;8849;-71
2022/04/22 05:05:09;;;;;;;;;36.25;30.25;30.90;99.90;;;;;;5023680;28;8790;-73
2022/04/22 05:07:47;;;;;;;;;33.00;30.00;30.70;99.90;;;;;;5057884;28;8755;-71
2022/04/22 05:10:14;;;;;;;;;34.25;31.25;30.20;99.90;;;;;;5057226;28;9495;-70
2022/04/22 05:12:42;;;;;;;;;32.00;30.00;30.90;99.90;;;;;;5057258;28;8772;-70
2022/04/22 05:15:09;;;;;;;;;36.75;32.75;30.90;99.90;;;;;;5057066;28;8763;-70
2022/04/22 05:17:36;;;;;;;;;41.00;33.00;31.00;99.90;;;;;;5039958;28;8754;-65
2022/04/22 05:20:02;;;;;;;;;31.75;26.25;31.50;99.90;;;;;;5057721;28;8781;-64
2022/04/22 05:22:29;;;;;;;;;41.50;32.25;31.30;99.90;;;;;;5057239;28;8723;-64
2022/04/22 05:24:56;;;;;;;;;36.25;31.25;30.80;99.90;;;;;;5040889;28;8750;-64
2022/04/22 05:27:23;;;;;;;;;35.75;31.25;31.10;99.90;;;;;;5057211;28;8739;-66
2022/04/22 05:32:37;;;;;;;;;30.75;29.00;30.60;99.90;;;;;;5042550;28;9412;-64
2022/04/22 05:35:07;;;;;;;;;39.50;31.25;30.30;99.90;;;;;;5022526;28;8787;-64
2022/04/22 05:37:45;;;;;;;;;38.75;31.00;30.10;99.90;;;;;;5056969;28;8842;-64
2022/04/22 05:40:12;;;;;;;;;37.25;32.00;30.10;99.90;;;;;;5040807;28;8755;-64
2022/04/22 05:42:39;;;;;;;;;38.25;33.25;30.00;99.90;;;;;;5039097;28;8762;-64
2022/04/22 05:45:07;;;;;;;;;37.25;32.00;30.20;99.90;;;;;;5040229;28;8767;-64
2022/04/22 05:47:34;;;;;;;;;41.75;34.00;30.20;99.90;;;;;;5039781;28;8778;-64
2022/04/22 05:50:01;;;;;;;;;40.25;32.00;30.20;99.90;;;;;;5057300;28;8786;-64
2022/04/22 05:52:28;;;;;;;;;41.75;35.25;30.40;99.90;;;;;;5056863;28;8747;-64
2022/04/22 05:55:02;;;;;;;;;34.00;30.25;30.30;99.90;;;;;;5040168;28;8865;-64
2022/04/22 05:57:32;;;;;;;;;36.25;32.00;30.30;99.90;;;;;;5056443;28;8782;-64
2022/04/22 05:59:59;;;;;;;;;40.75;32.00;30.50;99.90;;;;;;5056804;28;9373;-64
2022/04/22 06:02:26;;;;;;;;;36.50;31.25;30.60;99.90;;;;;;5056912;28;8743;-64
2022/04/22 06:04:53;;;;;;;;;32.50;29.00;30.50;99.90;;;;;;5056612;28;8790;-64
2022/04/22 06:07:20;;;;;;;;;34.00;31.50;30.50;99.90;;;;;;5039046;28;8735;-64
2022/04/22 06:12:31;;;;;;;;;27.25;24.75;30.80;99.90;;;;;;5041691;28;8747;-70
2022/04/22 06:15:02;;;;;;;;;24.50;20.75;31.50;99.90;;;;;;5018920;28;8780;-68
2022/04/22 06:17:29;;;;;;;;;31.50;29.00;31.30;99.90;;;;;;5037241;28;8755;-70
2022/04/22 06:19:56;;;;;;;;;31.00;28.50;32.00;99.90;;;;;;5035795;28;8782;-69
2022/04/22 06:22:23;;;;;;;;;22.50;22.00;32.00;99.70;;;;;;5036757;28;8733;-69
2022/04/22 06:24:50;;;;;;;;;30.75;24.00;32.10;99.90;;;;;;5036915;28;8736;-69
2022/04/22 06:27:35;;;;;;;;;31.25;29.00;32.00;99.60;;;;;;5035528;28;8790;-67
2022/04/22 06:30:15;;;;;;;;;30.25;27.75;32.50;99.50;;;;;;5035372;28;8847;-65
2022/04/22 06:32:45;;;;;;;;;38.75;28.00;32.80;98.30;;;;;;5035098;28;8764;-66
2022/04/22 06:35:13;;;;;;;;;32.75;29.00;33.00;96.20;;;;;;5035085;28;8799;-66
2022/04/22 06:37:47;;;;;;;;;34.25;27.75;33.00;96.30;;;;;;5032133;28;8735;-66
2022/04/22 06:45:46;;;;;;;;;21.00;17.50;32.70;95.90;;;;;;5043505;28;8751;-66
2022/04/22 06:48:20;;;;;;;;;34.25;30.50;32.50;98.30;;;;;;5031704;28;8755;-66
2022/04/22 06:50:48;;;;;;;;;25.75;23.75;33.10;96.40;;;;;;5014297;28;8805;-66
2022/04/22 06:53:16;;;;;;;;;32.25;27.00;33.00;97.50;;;;;;5035932;28;8953;-66
2022/04/22 06:55:43;;;;;;;;;35.25;29.25;33.10;95.30;;;;;;5035905;28;8748;-66
2022/04/22 06:58:12;;;;;;;;;30.75;27.00;33.20;95.20;;;;;;5037296;28;8748;-65
2022/04/22 07:00:42;;;;;;;;;26.75;24.25;33.30;94.70;;;;;;5036535;28;8786;-67
2022/04/22 07:03:09;;;;;;;;;25.75;22.75;33.10;94.80;;;;;;5034128;28;8756;-67
2022/04/22 07:05:37;;;;;;;;;31.75;28.75;33.30;94.30;;;;;;5034683;28;8792;-64
2022/04/22 07:08:05;;;;;;;;;23.25;22.25;32.80;94.00;;;;;;5033430;28;8945;-64
2022/04/22 07:10:35;;;;;;;;;34.25;29.75;32.60;94.60;;;;;;5043987;28;8759;-65
2022/04/22 07:13:02;;;;;;;;;28.00;25.50;33.10;94.50;;;;;;5041946;28;8736;-67
2022/04/22 07:15:28;;;;;;;;;23.25;22.00;33.00;94.40;;;;;;5034686;28;9383;-65
2022/04/22 07:17:55;;;;;;;;;34.50;29.00;32.60;95.70;;;;;;5036103;28;8859;-64
2022/04/22 07:20:22;;;;;;;;;33.75;30.50;32.90;95.40;;;;;;5036013;28;8757;-64
2022/04/22 07:22:50;;;;;;;;;31.75;26.00;32.80;95.10;;;;;;5035680;28;8768;-64
2022/04/22 07:25:17;;;;;;;;;27.25;26.25;33.20;94.00;;;;;;5035747;28;8741;-65
2022/04/22 07:27:46;;;;;;;;;31.50;29.75;32.90;95.60;;;;;;5035897;28;8769;-64
2022/04/22 07:30:15;;;;;;;;;28.00;27.00;32.60;95.10;;;;;;5036285;28;8767;-64
2022/04/22 07:32:45;;;;;;;;;32.00;27.00;33.00;95.80;;;;;;5034704;28;8744;-64
2022/04/22 07:35:13;;;;;;;;;30.00;26.50;33.10;94.90;;;;;;5036231;28;8784;-64
2022/04/22 07:37:40;;;;;;;;;32.00;23.50;33.00;93.40;;;;;;5034668;28;8749;-64
2022/04/22 07:40:07;;;;;;;;;27.25;24.00;33.10;94.20;;;;;;5051355;28;8776;-63
2022/04/22 07:42:35;;;;;;;;;23.00;19.75;33.40;93.00;;;;;;5035388;28;8770;-63
2022/04/22 07:47:48;;;;;;;;;30.25;27.00;32.90;93.70;;;;;;5034320;28;8752;-63
2022/04/22 07:50:15;;;;;;;;;33.00;29.50;33.10;92.80;;;;;;5035395;28;9440;-67
2022/04/22 07:52:47;;;;;;;;;32.25;28.25;33.00;93.90;;;;;;5034346;28;8729;-69
2022/04/22 07:55:14;;;;;;;;;31.00;29.50;32.50;94.30;;;;;;5035701;28;8834;-69
2022/04/22 07:57:41;;;;;;;;;36.00;30.00;32.00;94.80;;;;;;5035630;28;8759;-68
2022/04/22 08:00:09;;;;;;;;;33.00;30.25;32.10;94.40;;;;;;5034986;28;8752;-68
2022/04/22 08:02:40;;;;;;;;;29.00;28.00;32.00;95.50;;;;;;5034360;28;8763;-69
2022/04/22 08:05:11;;;;;;;;;28.75;27.50;32.00;94.90;;;;;;5034511;28;8796;-69
2022/04/22 08:07:38;;;;;;;;;33.25;30.00;32.20;93.80;;;;;;5035722;28;8764;-71
2022/04/22 08:10:06;;;;;;;;;32.50;28.75;32.30;94.00;;;;;;5034582;28;8867;-71
2022/04/22 08:12:33;;;;;;;;;30.25;28.50;32.10;93.80;;;;;;5035208;28;8867;-71
2022/04/22 08:15:03;;;;;;;;;34.75;29.00;32.10;93.70;;;;;;5050943;28;8753;-71
2022/04/22 08:17:37;;;;;;;;;34.25;30.25;32.10;94.40;;;;;;5020687;28;8774;-69
2022/04/22 08:20:05;;;;;;;;;34.25;30.25;32.20;93.50;;;;;;5038798;28;8754;-70
2022/04/22 08:22:32;;;;;;;;;37.00;29.00;32.10;93.70;;;;;;5057857;28;8836;-69
2022/04/22 08:24:59;;;;;;;;;33.75;31.00;32.10;93.70;;;;;;5042371;28;8780;-69
2022/04/22 08:27:26;;;;;;;;;30.50;29.00;32.40;95.50;;;;;;5058561;28;8873;-70
2022/04/22 08:29:53;;;;;;;;;37.25;32.00;32.40;94.40;;;;;;5058773;28;8753;-69
2022/04/22 08:32:20;;;;;;;;;31.50;29.00;32.60;94.10;;;;;;5058455;28;8767;-69
2022/04/22 08:34:46;;;;;;;;;31.00;25.75;32.50;93.30;;;;;;5040542;28;8791;-70
2022/04/22 08:37:13;;;;;;;;;33.00;29.50;32.30;94.90;;;;;;5041731;28;8744;-69
2022/04/22 08:39:40;;;;;;;;;33.00;29.50;32.30;94.80;;;;;;5058847;28;8817;-69
2022/04/22 08:42:07;;;;;;;;;32.50;29.25;32.40;94.90;;;;;;5058213;28;9444;-69
2022/04/22 08:44:35;;;;;;;;;36.00;32.50;32.40;94.80;;;;;;5024765;28;9920;-69
2022/04/22 08:50:12;;;;;;;;;29.50;24.00;32.60;94.10;;;;;;5043418;28;8823;-70
2022/04/22 08:52:39;;;;;;;;;30.50;26.00;32.50;94.50;;;;;;5058813;28;8762;-69
2022/04/22 08:55:07;;;;;;;;;40.00;31.00;32.40;94.20;;;;;;5041940;28;8751;-69
2022/04/22 08:57:34;;;;;;;;;29.50;28.50;32.30;93.50;;;;;;5040987;28;8754;-70
2022/04/22 09:00:01;;;;;;;;;35.00;30.50;32.40;94.30;;;;;;5058774;28;8734;-69
2022/04/22 09:02:28;;;;;;;;;32.75;30.50;32.40;93.90;;;;;;5040799;28;8770;-69
2022/04/22 09:04:55;;;;;;;;;32.50;28.25;32.20;94.80;;;;;;5024608;28;8723;-70
2022/04/22 09:07:26;;;;;;;;;31.50;27.50;32.10;95.30;;;;;;5058728;28;8730;-69
2022/04/22 09:09:52;;;;;;;;;34.00;30.00;32.00;95.10;;;;;;5041518;28;8715;-69
2022/04/22 09:12:21;;;;;;;;;35.75;30.75;32.10;95.30;;;;;;5058205;28;8790;-69
2022/04/22 09:14:52;;;;;;;;;31.75;29.50;32.30;94.70;;;;;;5058074;28;9467;-69
2022/04/22 09:17:36;;;;;;;;;35.50;31.00;32.10;94.70;;;;;;5057838;28;9457;-69
2022/04/22 09:20:03;;;;;;;;;29.25;28.50;32.10;94.30;;;;;;5058561;28;8754;-66
2022/04/22 09:22:36;;;;;;;;;34.00;30.50;32.10;94.20;;;;;;5057750;28;8775;-65
2022/04/22 09:25:05;;;;;;;;;24.75;24.75;32.00;94.20;;;;;;5041845;28;8845;-64
2022/04/22 09:27:42;;;;;;;;;29.50;28.00;32.00;95.00;;;;;;5040525;28;8746;-64
2022/04/22 09:30:11;;;;;;;;;30.75;29.25;32.00;93.60;;;;;;5040879;28;9333;-65
2022/04/22 09:32:39;;;;;;;;;29.50;28.00;32.00;94.80;;;;;;5058110;28;8861;-64
2022/04/22 09:35:17;;;;;;;;;33.00;28.25;32.00;94.60;;;;;;5023543;28;8782;-64
2022/04/22 09:43:24;;;;;;;;;28.25;27.50;31.80;95.30;;;;;;5057795;28;8735;-57
2022/04/22 09:45:52;;;;;;;;;30.25;29.50;31.80;94.50;;;;;;5041206;28;8781;-64
2022/04/22 09:48:20;;;;;;;;;28.75;27.00;31.80;94.00;;;;;;5023419;28;8743;-64
2022/04/22 09:50:53;;;;;;;;;33.25;29.50;31.80;93.40;;;;;;5057917;28;8853;-64
2022/04/22 09:53:34;;;;;;;;;31.25;28.25;32.00;93.40;;;;;;5037598;28;9362;-64
2022/04/22 09:56:10;;;;;;;;;31.00;28.75;32.00;93.40;;;;;;5004147;28;8780;-64
2022/04/22 09:58:37;;;;;;;;;32.00;29.00;31.80;94.00;;;;;;5037615;28;8818;-64
2022/04/22 10:01:05;;;;;;;;;34.75;28.75;31.90;93.60;;;;;;5038275;28;8838;-64
2022/04/22 10:03:33;;;;;;;;;34.75;26.00;31.80;93.50;;;;;;5037156;28;8741;-64
2022/04/22 10:06:01;;;;;;;;;26.00;25.25;31.80;93.80;;;;;;5038432;28;8818;-65
2022/04/22 10:08:31;;;;;;;;;34.50;31.00;31.80;93.50;;;;;;5057287;28;8782;-64
2022/04/22 10:11:01;;;;;;;;;29.25;26.25;31.80;93.30;;;;;;5039622;28;8766;-64
2022/04/22 10:13:41;;;;;;;;;34.50;30.00;31.70;93.10;;;;;;5039051;28;8775;-64
2022/04/22 10:16:11;;;;;;;;;25.50;24.50;31.80;93.00;;;;;;5058494;28;8751;-64
2022/04/22 10:18:39;;;;;;;;;31.00;26.75;31.90;93.20;;;;;;5057019;28;8771;-64
2022/04/22 10:21:05;;;;;;;;;30.00;29.75;31.70;93.30;;;;;;5057143;28;8778;-65
2022/04/22 10:23:32;;;;;;;;;33.50;30.50;31.60;94.10;;;;;;5056730;28;8755;-65
2022/04/22 10:26:00;;;;;;;;;27.25;26.00;31.60;93.90;;;;;;5057659;28;8832;-65
2022/04/22 10:28:29;;;;;;;;;32.25;30.25;31.50;94.50;;;;;;5039348;28;8913;-64
2022/04/22 10:31:00;;;;;;;;;37.00;30.00;31.50;95.90;;;;;;5039829;28;8739;-65
2022/04/22 10:33:27;;;;;;;;;33.50;29.00;31.60;96.20;;;;;;5039358;28;8906;-64
2022/04/22 10:36:00;;;;;;;;;34.25;30.25;31.40;96.10;;;;;;5057225;28;8743;-65
2022/04/22 10:38:34;;;;;;;;;26.75;25.00;31.40;96.10;;;;;;5036638;28;9458;-64
2022/04/22 10:41:02;;;;;;;;;33.50;30.00;31.50;96.00;;;;;;5036941;28;8757;-65
2022/04/22 10:43:33;;;;;;;;;33.75;29.00;31.40;95.80;;;;;;5018607;28;8922;-64
2022/04/22 10:49:13;;;;;;;;;34.25;29.00;31.40;95.30;;;;;;5022121;28;8761;-64
2022/04/22 10:52:40;;;;;;;;;34.50;30.00;31.30;95.40;;;;;;5043055;28;8763;-64
2022/04/22 10:54:58;;;;;;;;;38.25;29.75;31.20;95.90;;;;;;5048624;28;8786;-65
2022/04/22 10:57:33;;;;;;;;;32.50;30.00;31.10;96.00;;;;;;5056743;28;9334;-65
2022/04/22 11:00:04;;;;;;;;;35.25;30.50;31.00;96.20;;;;;;5056843;28;8755;-65
2022/04/22 11:02:32;;;;;;;;;33.25;26.75;31.00;97.10;;;;;;5056629;28;8755;-65
2022/04/22 11:05:18;;;;;;;;;38.00;30.00;31.00;96.50;;;;;;5056697;28;8804;-65
2022/04/22 11:08:07;;;;;;;;;35.75;33.50;31.00;96.90;;;;;;5056878;28;9641;-65
2022/04/22 11:10:49;;;;;;;;;35.25;33.00;30.90;97.20;;;;;;5056654;28;8774;-65
2022/04/22 11:13:39;;;;;;;;;35.75;30.75;30.90;97.80;;;;;;5057595;28;8790;-65
2022/04/22 11:16:28;;;;;;;;;27.75;27.25;30.90;97.80;;;;;;5057140;28;8771;-65
2022/04/22 11:19:19;;;;;;;;;36.50;32.75;30.90;97.60;;;;;;5057562;28;9514;-65
2022/04/22 11:21:52;;;;;;;;;38.00;31.25;30.80;98.10;;;;;;5036742;28;8761;-65
2022/04/22 11:24:29;;;;;;;;;41.00;33.50;30.80;99.10;;;;;;5036505;28;8776;-64
2022/04/22 11:27:11;;;;;;;;;36.00;30.75;30.80;99.00;;;;;;5058736;28;8749;-65
2022/04/22 11:29:38;;;;;;;;;35.25;31.25;30.80;98.70;;;;;;5059009;28;8787;-65
2022/04/22 11:32:14;;;;;;;;;33.50;32.00;30.80;98.50;;;;;;5058624;28;8772;-65
2022/04/22 11:34:56;;;;;;;;;27.50;24.50;30.80;98.40;;;;;;5058704;28;8769;-64
2022/04/22 11:37:23;;;;;;;;;29.00;25.25;30.70;98.80;;;;;;5065083;28;8802;-65
2022/04/22 11:39:50;;;;;;;;;35.75;31.00;30.70;99.30;;;;;;5038159;28;8763;-65
2022/04/22 11:42:17;;;;;;;;;33.75;31.25;30.70;99.50;;;;;;5037962;28;8760;-64
2022/04/22 11:45:03;;;;;;;;;36.50;32.25;30.70;98.90;;;;;;5036606;28;8768;-65
2022/04/22 11:47:30;;;;;;;;;36.25;31.75;30.70;98.80;;;;;;5053351;28;8755;-64
2022/04/22 11:49:57;;;;;;;;;36.25;31.25;30.70;99.20;;;;;;5035166;28;8780;-64
2022/04/22 11:52:23;;;;;;;;;36.00;31.75;30.70;99.70;;;;;;5023399;28;8747;-65
2022/04/22 11:54:50;;;;;;;;;40.75;32.75;30.60;99.90;;;;;;5015719;28;8778;-65
2022/04/22 11:57:21;;;;;;;;;33.50;29.75;30.50;99.90;;;;;;5019715;28;8755;-64
2022/04/22 12:05:32;;;;;;;;;36.25;32.50;30.60;99.90;;;;;;5021312;28;8771;-64
2022/04/22 12:05:32;;;;;;;;;45.00;35.50;30.30;99.90;;;;;;5031090;28;8763;-64
2022/04/22 12:08:01;;;;;;;;;64.60;50.20;30.30;99.90;;;;;;5037136;28;8834;-65
2022/04/22 12:10:28;;;;;;;;;86.20;77.40;30.30;99.90;;;;;;5038562;28;8826;-64
2022/04/22 12:13:01;;;;;;;;;115.60;100.20;30.30;99.90;;;;;;5039211;28;8743;-65
2022/04/22 12:15:27;;;;;;;;;67.80;52.80;30.30;99.90;;;;;;5038418;28;8826;-65
2022/04/22 12:17:54;;;;;;;;;80.40;71.40;30.30;99.90;;;;;;5040150;28;8769;-65
2022/04/22 12:20:21;;;;;;;;;75.80;65.60;30.20;99.90;;;;;;5039983;28;8842;-64
2022/04/22 12:22:52;;;;;;;;;76.80;68.80;30.20;99.90;;;;;;5038454;28;8882;-64
2022/04/22 12:25:21;;;;;;;;;73.00;59.40;30.10;99.90;;;;;;5057561;28;8832;-64
2022/04/22 12:28:11;;;;;;;;;61.60;49.00;30.10;99.90;;;;;;5022481;28;8737;-65
2022/04/22 12:30:39;;;;;;;;;57.00;44.50;30.10;99.90;;;;;;5055078;28;8780;-64
2022/04/22 12:33:16;;;;;;;;;56.75;43.25;30.00;99.90;;;;;;5039877;28;9020;-64
2022/04/22 12:35:44;;;;;;;;;54.25;43.50;29.90;99.90;;;;;;5054548;28;8895;-65
2022/04/22 12:38:13;;;;;;;;;42.75;34.00;29.90;99.90;;;;;;5033180;28;8771;-65
2022/04/22 12:40:47;;;;;;;;;52.50;43.50;29.90;99.90;;;;;;5019209;28;8751;-64
2022/04/22 12:43:31;;;;;;;;;55.25;43.25;30.00;99.90;;;;;;5040115;28;8753;-65
2022/04/22 12:52:14;;;;;;;;;47.50;39.75;30.00;99.90;;;;;;4988505;28;8759;-65
2022/04/22 12:54:43;;;;;;;;;55.00;44.25;29.90;99.90;;;;;;4997566;28;8777;-65
2022/04/22 12:57:19;;;;;;;;;52.25;41.25;30.00;99.90;;;;;;4997580;28;8789;-65
2022/04/22 12:59:50;;;;;;;;;51.50;41.50;30.00;99.90;;;;;;4989253;28;9491;-65
2022/04/22 13:02:18;;;;;;;;;49.25;40.00;29.80;99.90;;;;;;4997823;28;8812;-64
2022/04/22 13:04:52;;;;;;;;;53.75;41.75;29.80;99.90;;;;;;4997543;28;8824;-65
2022/04/22 13:07:19;;;;;;;;;49.25;40.00;29.70;99.90;;;;;;4997364;28;8758;-65
2022/04/22 13:09:46;;;;;;;;;55.50;44.00;29.70;99.90;;;;;;4997507;28;8785;-65
2022/04/22 13:12:13;;;;;;;;;61.80;47.40;29.70;99.90;;;;;;4980891;28;8854;-65
2022/04/22 13:14:40;;;;;;;;;62.20;49.00;29.70;99.90;;;;;;4996856;28;8785;-65
2022/04/22 13:17:17;;;;;;;;;56.25;45.00;29.80;99.90;;;;;;4997307;28;8888;-65
2022/04/22 13:19:43;;;;;;;;;56.75;44.50;29.70;99.90;;;;;;5016790;28;8854;-65
2022/04/22 13:22:10;;;;;;;;;54.50;43.00;29.70;99.90;;;;;;5028706;28;8777;-65
2022/04/22 13:24:37;;;;;;;;;57.50;45.50;29.70;99.90;;;;;;5018726;28;8770;-65
2022/04/22 13:27:07;;;;;;;;;57.75;45.50;29.70;99.90;;;;;;5018927;28;9057;-65
2022/04/22 13:29:33;;;;;;;;;54.75;41.75;29.70;99.90;;;;;;5018453;28;8793;-65
2022/04/22 13:32:00;;;;;;;;;66.80;50.00;29.70;99.90;;;;;;5018273;28;9404;-65
2022/04/22 13:34:27;;;;;;;;;61.40;49.80;29.60;99.90;;;;;;5018230;28;8818;-65
2022/04/22 13:36:54;;;;;;;;;63.00;50.00;29.50;99.90;;;;;;5026635;28;8729;-65
2022/04/22 13:39:20;;;;;;;;;58.50;46.75;29.40;99.90;;;;;;5038156;28;8763;-65
2022/04/22 13:41:47;;;;;;;;;59.50;44.25;29.40;99.90;;;;;;5037027;28;8777;-65
2022/04/22 13:52:20;;;;;;;;;57.00;44.00;29.40;99.90;;;;;;5037114;28;8787;-65